Belcourt, North Dakota
Current Conditions -  °F | °C
As of 4:15 PM on Sunday 21 Dec 2014 (Local Time) from K06D Reporting Station
Moderate Fog Moderate Fog  
Wind Chill: 14°   Ceiling: 200
Heat Index: 25°   Visibility: 0.25mi
Dew Point: 25°   Wind: 12mph
Humidity: 100%   Direction: 150°SSE
Pressure: 29.48"   Gusts: NA
Location:  48.84°N, 99.75°W
Report Text: K06D 212215Z AUTO 15010KT 1/4SM FZFG OVC002 M04/M04 A2948 RMK AO2
Loading
Personal Weather Stations






























Interactive Weather Map New forecast layout! Learn more

10-Day Weather Forecast

Advertisements
Track Severe Weather on mobile